OCN1AK EDDM-LGKL
Flight info
| Callsign | OCN1AK |
|---|---|
| Flight time | N/A |
| Altitude | 37000 |
| Route | VAVOR3S/26L VAVOR M867 RADIZ DCT VEKEN DCT URAVA DCT ILB DCT RILIM DCT NOSTO UL612 TRL Y115 IPTAG |
| Aircraft | A320/M-SDE3FGHIRWY/LB1 |
Departure
| Time | 2026-05-07 12:20 |
|---|---|
| Airport | Munich Airport (EDDM) |
Arrival
| Time | N/A |
|---|---|
| Airport | Kalamata Airport (LGKL) |
| Time | Latitude | Longitude | Altitude | Speed | Heading |
|---|---|---|---|---|---|
| 2026-05-07 11:48 | 48.35068 | 11.80711 | 1486 ft | 0 kts | 173° |
| 2026-05-07 12:12 | 48.35083 | 11.80708 | 1469 ft | 2 kts | 173° |
| 2026-05-07 12:12 | 48.35100 | 11.80705 | 1471 ft | 2 kts | 173° |
| 2026-05-07 12:13 | 48.35117 | 11.80702 | 1473 ft | 2 kts | 173° |
| 2026-05-07 12:13 | 48.35135 | 11.80701 | 1473 ft | 3 kts | 200° |
| 2026-05-07 12:13 | 48.35151 | 11.80715 | 1479 ft | 3 kts | 237° |
| 2026-05-07 12:13 | 48.35157 | 11.80734 | 1475 ft | 0 kts | 257° |
| 2026-05-07 12:15 | 48.35156 | 11.80733 | 1475 ft | 1 kts | 257° |
| 2026-05-07 12:15 | 48.35152 | 11.80684 | 1481 ft | 11 kts | 264° |
| 2026-05-07 12:16 | 48.35143 | 11.80564 | 1485 ft | 12 kts | 263° |
| 2026-05-07 12:16 | 48.35133 | 11.80428 | 1485 ft | 14 kts | 263° |
| 2026-05-07 12:16 | 48.35116 | 11.80280 | 1479 ft | 14 kts | 260° |
| 2026-05-07 12:16 | 48.35103 | 11.80127 | 1485 ft | 15 kts | 263° |
| 2026-05-07 12:17 | 48.35091 | 11.79967 | 1485 ft | 16 kts | 264° |
| 2026-05-07 12:17 | 48.35078 | 11.79796 | 1480 ft | 17 kts | 264° |
| 2026-05-07 12:17 | 48.35042 | 11.79674 | 1483 ft | 13 kts | 206° |
| 2026-05-07 12:17 | 48.34950 | 11.79679 | 1483 ft | 15 kts | 173° |
| 2026-05-07 12:18 | 48.34837 | 11.79699 | 1485 ft | 14 kts | 166° |
| 2026-05-07 12:18 | 48.34813 | 11.79841 | 1480 ft | 17 kts | 83° |
| 2026-05-07 12:18 | 48.34829 | 11.80041 | 1482 ft | 21 kts | 83° |
| 2026-05-07 12:18 | 48.34782 | 11.80223 | 1475 ft | 19 kts | 136° |
| 2026-05-07 12:19 | 48.34647 | 11.80262 | 1473 ft | 22 kts | 173° |
| 2026-05-07 12:19 | 48.34509 | 11.80276 | 1475 ft | 17 kts | 193° |
| 2026-05-07 12:19 | 48.34452 | 11.80118 | 1485 ft | 23 kts | 260° |
| 2026-05-07 12:19 | 48.34413 | 11.79623 | 1477 ft | 81 kts | 263° |
| 2026-05-07 12:20 | 48.34323 | 11.78439 | 1486 ft | 138 kts | 263° |
| 2026-05-07 12:20 | 48.34205 | 11.76833 | 1777 ft | 160 kts | 264° |
| 2026-05-07 12:20 | 48.34089 | 11.75123 | 2540 ft | 163 kts | 266° |
| 2026-05-07 12:20 | 48.34005 | 11.73449 | 3311 ft | 160 kts | 264° |
| 2026-05-07 12:21 | 48.33593 | 11.71856 | 3844 ft | 172 kts | 235° |
| 2026-05-07 12:21 | 48.32583 | 11.70767 | 4329 ft | 190 kts | 201° |
| 2026-05-07 12:21 | 48.31217 | 11.70739 | 4781 ft | 209 kts | 175° |
| 2026-05-07 12:21 | 48.29711 | 11.70978 | 5116 ft | 224 kts | 179° |
| 2026-05-07 12:22 | 48.28162 | 11.71551 | 5659 ft | 240 kts | 158° |
| 2026-05-07 12:22 | 48.26716 | 11.73073 | 6047 ft | 268 kts | 141° |
| 2026-05-07 12:22 | 48.25256 | 11.74964 | 6679 ft | 282 kts | 142° |
| 2026-05-07 12:22 | 48.23752 | 11.76886 | 7493 ft | 286 kts | 142° |
| 2026-05-07 12:23 | 48.22222 | 11.78836 | 8358 ft | 290 kts | 142° |
| 2026-05-07 12:23 | 48.20675 | 11.80800 | 9229 ft | 293 kts | 143° |
| 2026-05-07 12:23 | 48.19108 | 11.82792 | 10105 ft | 297 kts | 143° |
| 2026-05-07 12:23 | 48.18022 | 11.84172 | 10441 ft | 310 kts | 143° |
| 2026-05-07 12:24 | 48.16311 | 11.86343 | 10766 ft | 332 kts | 142° |
| 2026-05-07 12:24 | 48.14479 | 11.88672 | 11430 ft | 340 kts | 142° |
| 2026-05-07 12:24 | 48.12662 | 11.90987 | 12186 ft | 345 kts | 142° |
| 2026-05-07 12:24 | 48.10755 | 11.93421 | 12974 ft | 348 kts | 142° |
| 2026-05-07 12:25 | 48.08865 | 11.95831 | 13754 ft | 352 kts | 143° |
| 2026-05-07 12:25 | 48.06727 | 11.98552 | 14517 ft | 356 kts | 143° |
| 2026-05-07 12:25 | 48.05295 | 12.00383 | 15027 ft | 356 kts | 140° |
| 2026-05-07 12:25 | 48.04479 | 12.02194 | 15036 ft | 370 kts | 112° |
| 2026-05-07 12:26 | 48.03092 | 12.06582 | 14829 ft | 399 kts | 129° |
| 2026-05-07 12:26 | 48.00672 | 12.10149 | 16032 ft | 379 kts | 143° |